Time;durP1;ratioP1;P1;durP2;ratioP2;P2;SDS_P1;SDS_P2;PMS_P1;PMS_P2;Temp;Humidity;BMP_temperature;BMP_pressure;BME280_temperature;BME280_humidity;BME280_pressure;Samples;Min_cycle;Max_cycle;Signal;HPM_P1;HPM_P2
2021/04/22 00:02:03;;;;;;;6.87;0.72;;;;;;;1.96;100.00;100731.13;1776982;80;21133;-40
2021/04/22 00:04:30;;;;;;;0.10;0.10;;;;;;;1.93;100.00;100730.22;1776974;80;21540;-41
2021/04/22 00:06:58;;;;;;;1.65;0.98;;;;;;;1.91;100.00;100729.08;1776671;80;21558;-40
2021/04/22 00:09:26;;;;;;;0.30;0.30;;;;;;;1.88;100.00;100729.52;1780099;80;21141;-40
2021/04/22 00:11:54;;;;;;;0.20;0.20;;;;;;;1.88;100.00;100719.23;1784957;80;21134;-39
2021/04/22 00:14:21;;;;;;;0.05;0.05;;;;;;;1.89;100.00;100730.34;1785200;79;21018;-40
2021/04/22 00:16:52;;;;;;;0.42;0.37;;;;;;;1.90;100.00;100730.62;1785084;80;21193;-41
2021/04/22 00:19:19;;;;;;;0.75;0.75;;;;;;;1.90;100.00;100738.72;1785057;79;21134;-41
2021/04/22 00:21:47;;;;;;;0.05;0.05;;;;;;;1.91;100.00;100730.95;1785402;80;21114;-41
2021/04/22 00:24:15;;;;;;;0.20;0.20;;;;;;;1.89;100.00;100732.50;1785473;78;21118;-41
2021/04/22 00:26:44;;;;;;;0.23;0.23;;;;;;;1.91;100.00;100731.77;1785352;80;21133;-42
2021/04/22 00:29:12;;;;;;;0.53;0.53;;;;;;;1.94;100.00;100729.98;1785067;79;21145;-41
2021/04/22 00:31:40;;;;;;;0.00;0.00;;;;;;;1.97;100.00;100728.73;1785392;80;21174;-42
2021/04/22 00:34:07;;;;;;;0.20;0.20;;;;;;;2.00;100.00;100729.64;1785257;78;21406;-41
2021/04/22 00:36:35;;;;;;;0.10;0.10;;;;;;;2.01;100.00;100729.96;1785428;80;21142;-41
2021/04/22 00:39:03;;;;;;;0.00;0.00;;;;;;;2.03;100.00;100738.66;1785484;78;21638;-41
2021/04/22 00:41:31;;;;;;;0.00;0.00;;;;;;;2.06;100.00;100740.09;1785369;80;21139;-40
2021/04/22 00:43:59;;;;;;;0.33;0.33;;;;;;;2.06;100.00;100732.02;1785409;80;21124;-42
2021/04/22 00:46:26;;;;;;;0.33;0.23;;;;;;;2.07;100.00;100735.82;1782764;80;21148;-41
2021/04/22 00:48:54;;;;;;;0.40;0.40;;;;;;;2.08;100.00;100742.06;1776974;80;21160;-42
2021/04/22 00:51:22;;;;;;;0.10;0.10;;;;;;;2.08;100.00;100728.58;1778061;78;21138;-41
2021/04/22 00:53:51;;;;;;;3.20;0.68;;;;;;;2.07;100.00;100731.78;1754820;80;21129;-41
2021/04/22 00:56:19;;;;;;;0.30;0.30;;;;;;;2.05;100.00;100735.23;1785098;80;21186;-43
2021/04/22 00:58:46;;;;;;;0.10;0.10;;;;;;;2.04;100.00;100733.56;1730374;80;21557;-40
2021/04/22 01:01:15;;;;;;;0.70;0.10;;;;;;;2.01;100.00;100729.96;1785071;80;21465;-41
2021/04/22 01:03:42;;;;;;;0.53;0.53;;;;;;;1.98;100.00;100737.14;1784639;79;21143;-40
2021/04/22 01:06:11;;;;;;;0.00;0.00;;;;;;;1.96;100.00;100739.22;1754298;80;21114;-41
2021/04/22 01:08:39;;;;;;;0.88;0.65;;;;;;;1.93;100.00;100743.70;1785277;79;21122;-41
2021/04/22 01:11:07;;;;;;;0.00;0.00;;;;;;;1.90;100.00;100746.80;1785210;80;21154;-41
2021/04/22 01:13:36;;;;;;;0.15;0.15;;;;;;;1.88;100.00;100736.75;1785036;79;21126;-41
2021/04/22 01:16:05;;;;;;;0.30;0.30;;;;;;;1.85;100.00;100738.00;1785265;80;21127;-42
2021/04/22 01:18:32;;;;;;;2.08;0.30;;;;;;;1.83;100.00;100737.42;1785146;79;21660;-40
2021/04/22 01:21:00;;;;;;;0.03;0.03;;;;;;;1.79;100.00;100738.87;1784882;80;21861;-40
2021/04/22 01:23:28;;;;;;;0.05;0.05;;;;;;;1.75;100.00;100740.86;1755067;80;21130;-41
2021/04/22 01:25:57;;;;;;;0.00;0.00;;;;;;;1.72;100.00;100740.25;1785191;80;21106;-41
2021/04/22 01:28:26;;;;;;;0.10;0.10;;;;;;;1.69;100.00;100739.34;1785019;78;21142;-41
2021/04/22 01:30:56;;;;;;;0.00;0.00;;;;;;;1.66;100.00;100746.50;1784961;80;21182;-41
2021/04/22 01:33:27;;;;;;;0.00;0.00;;;;;;;1.63;100.00;100744.24;1784819;79;21141;-41
2021/04/22 01:35:57;;;;;;;0.55;0.55;;;;;;;1.59;100.00;100749.74;1785267;80;29096;-42
2021/04/22 01:38:28;;;;;;;0.33;0.33;;;;;;;1.56;100.00;100750.17;1784939;78;21169;-42
2021/04/22 01:40:57;;;;;;;0.00;0.00;;;;;;;1.53;100.00;100747.88;1749858;81;21536;-40
2021/04/22 01:43:26;;;;;;;1.17;0.78;;;;;;;1.49;100.00;100750.71;1753914;80;21171;-41
2021/04/22 01:45:54;;;;;;;0.20;0.20;;;;;;;1.44;100.00;100745.95;1753883;81;21660;-40
2021/04/22 01:48:24;;;;;;;0.00;0.00;;;;;;;1.38;100.00;100750.00;1753939;80;21178;-41
2021/04/22 01:50:52;;;;;;;0.10;0.10;;;;;;;1.34;100.00;100748.80;1754410;81;21483;-41
2021/04/22 01:53:20;;;;;;;0.50;0.50;;;;;;;1.29;100.00;100744.86;1755027;79;21221;-41
2021/04/22 01:55:50;;;;;;;0.10;0.10;;;;;;;1.26;100.00;100738.56;1784808;80;21126;-40
2021/04/22 01:58:20;;;;;;;0.00;0.00;;;;;;;1.25;100.00;100732.02;1785297;78;21498;-40
2021/04/22 02:00:53;;;;;;;0.55;0.33;;;;;;;1.22;100.00;100737.31;1785480;80;21175;-41
2021/04/22 02:03:21;;;;;;;0.20;0.20;;;;;;;1.22;100.00;100737.31;1783872;79;21141;-40
2021/04/22 02:05:51;;;;;;;0.15;0.15;;;;;;;1.26;100.00;100737.21;1785527;80;21176;-42
2021/04/22 02:08:18;;;;;;;0.20;0.20;;;;;;;1.32;100.00;100735.53;1785442;78;21170;-40
2021/04/22 02:10:46;;;;;;;0.62;0.62;;;;;;;1.39;100.00;100736.87;1785132;80;21139;-40
2021/04/22 02:13:15;;;;;;;1.72;0.93;;;;;;;1.45;100.00;100737.35;1785189;79;21126;-41
2021/04/22 02:15:43;;;;;;;0.00;0.00;;;;;;;1.53;100.00;100737.11;1785259;80;21565;-40
2021/04/22 02:18:11;;;;;;;0.40;0.40;;;;;;;1.61;100.00;100737.42;1785124;79;21165;-40
2021/04/22 02:20:39;;;;;;;0.57;0.57;;;;;;;1.67;100.00;100740.06;1785214;80;21429;-41
2021/04/22 02:23:09;;;;;;;0.57;0.57;;;;;;;1.73;100.00;100739.72;1785214;79;21114;-40
2021/04/22 02:25:36;;;;;;;0.00;0.00;;;;;;;1.81;100.00;100734.63;1785150;80;22005;-42
2021/04/22 02:28:04;;;;;;;0.00;0.00;;;;;;;1.88;100.00;100745.69;1784918;78;21137;-41
2021/04/22 02:30:34;;;;;;;0.28;0.28;;;;;;;1.93;100.00;100740.48;1755079;80;21103;-41
2021/04/22 02:33:05;;;;;;;0.28;0.28;;;;;;;1.98;100.00;100741.19;1785471;78;21221;-41
2021/04/22 02:35:35;;;;;;;0.10;0.10;;;;;;;2.02;100.00;100742.38;1785760;80;21110;-41
2021/04/22 02:38:05;;;;;;;0.93;0.50;;;;;;;2.06;100.00;100743.61;1785511;78;21262;-41
2021/04/22 02:40:35;;;;;;;0.57;0.40;;;;;;;2.09;100.00;100743.17;1785414;80;21153;-41
2021/04/22 02:43:06;;;;;;;0.35;0.35;;;;;;;2.13;100.00;100748.98;1785273;78;21278;-40
2021/04/22 02:45:37;;;;;;;3.00;0.30;;;;;;;2.15;100.00;100753.61;1784932;80;21622;-41
2021/04/22 02:48:06;;;;;;;0.53;0.53;;;;;;;2.18;100.00;100751.00;1785195;78;21181;-41
2021/04/22 02:50:36;;;;;;;0.62;0.62;;;;;;;2.19;100.00;100752.67;1785305;80;21090;-41
2021/04/22 02:53:05;;;;;;;0.20;0.20;;;;;;;2.21;100.00;100755.45;1785196;78;21274;-41
2021/04/22 02:55:33;;;;;;;0.35;0.35;;;;;;;2.25;100.00;100759.88;1785209;80;21121;-41
2021/04/22 02:58:03;;;;;;;0.10;0.10;;;;;;;2.27;100.00;100757.80;1780779;79;21226;-41
2021/04/22 03:00:30;;;;;;;0.42;0.30;;;;;;;2.27;100.00;100757.27;1780145;80;21134;-40
2021/04/22 03:03:00;;;;;;;0.15;0.15;;;;;;;2.30;100.00;100767.64;1769581;78;21245;-42
2021/04/22 03:05:28;;;;;;;0.23;0.23;;;;;;;2.35;100.00;100771.05;1785314;80;21122;-41
2021/04/22 03:07:56;;;;;;;1.15;1.10;;;;;;;2.39;100.00;100768.73;1785491;78;21121;-41
2021/04/22 03:10:24;;;;;;;1.35;0.55;;;;;;;2.43;100.00;100776.17;1785232;80;21103;-40
2021/04/22 03:12:52;;;;;;;0.40;0.40;;;;;;;2.47;100.00;100784.11;1753472;80;21601;-41
2021/04/22 03:15:21;;;;;;;0.00;0.00;;;;;;;2.55;100.00;100789.27;1750739;81;21131;-41
2021/04/22 03:17:50;;;;;;;1.20;1.20;;;;;;;2.62;100.00;100789.23;1750879;80;21111;-42
2021/04/22 03:20:18;;;;;;;1.60;1.50;;;;;;;2.68;100.00;100807.23;1769004;80;21137;-41
2021/04/22 03:22:46;;;;;;;0.20;0.20;;;;;;;2.73;100.00;100802.00;1776749;80;21571;-40
2021/04/22 03:25:16;;;;;;;1.60;0.88;;;;;;;2.77;100.00;100790.26;1776785;80;21208;-40
2021/04/22 03:27:43;;;;;;;0.42;0.42;;;;;;;2.80;100.00;100796.56;1776598;80;21101;-41
2021/04/22 03:30:14;;;;;;;1.10;1.10;;;;;;;2.84;100.00;100800.45;1776626;80;21133;-41
2021/04/22 03:32:41;;;;;;;0.95;0.57;;;;;;;2.89;100.00;100794.40;1776526;80;21132;-42
2021/04/22 03:35:10;;;;;;;1.07;1.07;;;;;;;2.95;100.00;100801.10;1776576;80;21160;-41
2021/04/22 03:37:38;;;;;;;0.30;0.30;;;;;;;3.00;100.00;100793.16;1776803;80;21133;-41
2021/04/22 03:40:08;;;;;;;0.47;0.47;;;;;;;3.06;100.00;100798.73;1776478;80;21133;-41
2021/04/22 03:42:35;;;;;;;1.70;1.60;;;;;;;3.11;100.00;100811.04;1784136;80;21126;-43
2021/04/22 03:45:05;;;;;;;0.85;0.85;;;;;;;3.17;100.00;100812.87;1785102;78;21153;-41
2021/04/22 03:47:32;;;;;;;0.55;0.55;;;;;;;3.24;100.00;100817.69;1786326;80;21125;-41
2021/04/22 03:50:01;;;;;;;0.10;0.10;;;;;;;3.32;100.00;100816.05;1791193;78;21118;-42
2021/04/22 03:52:29;;;;;;;0.15;0.15;;;;;;;3.39;100.00;100824.92;1791209;80;21109;-41
2021/04/22 03:54:56;;;;;;;0.15;0.15;;;;;;;3.48;100.00;100833.55;1790614;78;21113;-41
2021/04/22 03:57:23;;;;;;;1.07;0.75;;;;;;;3.55;100.00;100830.78;1791328;80;21201;-41
2021/04/22 03:59:53;;;;;;;0.42;0.42;;;;;;;3.63;100.00;100829.95;1791199;78;21126;-41
2021/04/22 04:02:20;;;;;;;0.28;0.20;;;;;;;3.72;100.00;100827.80;1791371;80;21137;-41
2021/04/22 04:04:48;;;;;;;0.55;0.55;;;;;;;3.82;100.00;100826.73;1791583;78;21114;-41
2021/04/22 04:07:16;;;;;;;0.45;0.45;;;;;;;3.93;100.00;100832.44;1791582;80;21114;-41
2021/04/22 04:09:44;;;;;;;1.05;1.05;;;;;;;4.03;100.00;100836.78;1790727;78;21149;-41
2021/04/22 04:12:11;;;;;;;0.80;0.80;;;;;;;4.16;100.00;100840.70;1779719;80;21138;-41
2021/04/22 04:14:39;;;;;;;1.30;1.20;;;;;;;4.31;100.00;100843.01;1791149;78;21409;-41
2021/04/22 04:17:06;;;;;;;0.13;0.13;;;;;;;4.47;100.00;100842.89;1791426;80;21110;-40
2021/04/22 04:19:34;;;;;;;0.78;0.78;;;;;;;4.62;100.00;100848.70;1791692;78;21547;-42
2021/04/22 04:22:02;;;;;;;0.20;0.20;;;;;;;4.80;100.00;100850.55;1791366;79;21132;-41
2021/04/22 04:24:29;;;;;;;1.32;0.53;;;;;;;5.01;100.00;100852.41;1791163;78;21129;-44
2021/04/22 04:26:57;;;;;;;0.60;0.60;;;;;;;5.25;100.00;100856.81;1789362;80;21110;-41
2021/04/22 04:29:24;;;;;;;0.28;0.28;;;;;;;5.48;100.00;100853.81;1772445;80;21010;-41
2021/04/22 04:31:52;;;;;;;0.95;0.23;;;;;;;5.71;100.00;100854.33;1772493;80;21125;-41
2021/04/22 04:34:19;;;;;;;0.30;0.30;;;;;;;5.93;100.00;100866.20;1772434;79;21183;-41
2021/04/22 04:36:47;;;;;;;1.15;1.00;;;;;;;6.13;100.00;100855.53;1772453;80;21183;-41
2021/04/22 04:39:15;;;;;;;0.75;0.75;;;;;;;6.31;100.00;100866.23;1772500;80;21499;-41
2021/04/22 04:41:43;;;;;;;0.25;0.25;;;;;;;6.46;100.00;100864.34;1772328;79;21661;-41
2021/04/22 04:44:10;;;;;;;0.15;0.15;;;;;;;6.61;100.00;100871.97;1759397;80;21598;-43
2021/04/22 04:46:39;;;;;;;0.10;0.10;;;;;;;6.71;100.00;100866.72;1757041;81;21127;-41
2021/04/22 04:49:06;;;;;;;1.95;0.55;;;;;;;6.80;100.00;100862.55;1736586;81;21145;-41
2021/04/22 04:51:35;;;;;;;1.98;1.02;;;;;;;6.89;99.43;100869.75;1735355;82;21129;-40
2021/04/22 04:54:04;;;;;;;0.53;0.47;;;;;;;6.99;98.65;100860.41;1740191;81;21134;-41
2021/04/22 04:56:31;;;;;;;0.30;0.30;;;;;;;7.15;97.59;100863.41;1727137;83;21125;-41
2021/04/22 04:58:59;;;;;;;0.78;0.78;;;;;;;7.30;96.92;100868.55;1696519;83;21565;-41
2021/04/22 05:01:26;;;;;;;0.47;0.47;;;;;;;7.49;95.70;100874.57;1726966;83;21440;-42
2021/04/22 05:03:54;;;;;;;0.42;0.42;;;;;;;7.68;94.21;100867.48;1696497;83;21170;-41
2021/04/22 05:06:22;;;;;;;0.60;0.60;;;;;;;7.87;92.56;100870.76;1694397;83;21472;-43
2021/04/22 05:08:49;;;;;;;1.60;0.70;;;;;;;8.06;91.63;100872.11;1692724;84;21133;-41
2021/04/22 05:11:17;;;;;;;0.68;0.68;;;;;;;8.26;89.75;100869.34;1692801;84;21683;-41
2021/04/22 05:13:46;;;;;;;1.87;0.65;;;;;;;8.46;88.74;100868.27;1692556;84;21627;-42
2021/04/22 05:16:15;;;;;;;0.30;0.30;;;;;;;8.66;87.95;100869.58;1692736;84;21144;-41
2021/04/22 05:18:43;;;;;;;0.40;0.40;;;;;;;8.87;87.21;100874.13;1708004;83;21157;-41
2021/04/22 05:21:11;;;;;;;0.10;0.10;;;;;;;9.06;85.61;100862.88;1707125;84;21174;-41
2021/04/22 05:23:39;;;;;;;1.77;0.85;;;;;;;9.26;84.68;100867.94;1706923;84;21174;-41
2021/04/22 05:26:06;;;;;;;1.95;1.25;;;;;;;9.47;83.60;100864.84;1707012;84;21171;-41
2021/04/22 05:28:34;;;;;;;1.72;1.07;;;;;;;9.66;82.38;100869.87;1706863;84;21200;-42
2021/04/22 05:31:03;;;;;;;0.78;0.30;;;;;;;9.86;81.04;100867.25;1707071;84;21462;-42
2021/04/22 05:33:31;;;;;;;0.50;0.50;;;;;;;10.09;79.65;100873.41;1679533;84;21000;-42
2021/04/22 05:36:00;;;;;;;1.25;0.55;;;;;;;10.29;78.62;100866.69;1720236;82;21195;-41
2021/04/22 05:38:27;;;;;;;2.98;0.88;;;;;;;10.50;77.72;100864.83;1734523;82;21595;-41
2021/04/22 05:40:55;;;;;;;0.65;0.65;;;;;;;10.70;76.25;100861.33;1743743;81;21126;-42
2021/04/22 05:43:23;;;;;;;1.92;0.68;;;;;;;10.90;75.38;100863.28;1739655;81;21459;-42
2021/04/22 05:45:50;;;;;;;3.72;1.37;;;;;;;11.08;73.85;100867.42;1723534;83;21115;-41
2021/04/22 05:48:17;;;;;;;2.25;0.90;;;;;;;11.28;72.30;100862.50;1684450;84;21669;-41
2021/04/22 05:50:45;;;;;;;1.02;0.37;;;;;;;11.44;71.49;100871.50;1702518;84;21168;-41
2021/04/22 05:53:13;;;;;;;1.17;0.53;;;;;;;11.61;71.58;100877.51;1710733;82;21222;-41
2021/04/22 05:55:40;;;;;;;0.20;0.20;;;;;;;11.79;70.66;100876.13;1710129;82;21181;-41
2021/04/22 05:58:07;;;;;;;3.65;0.57;;;;;;;11.96;69.82;100871.72;1706630;82;21757;-41
2021/04/22 06:00:35;;;;;;;0.57;0.57;;;;;;;12.13;68.77;100871.39;1694631;82;21146;-42
2021/04/22 06:03:04;;;;;;;1.75;0.85;;;;;;;12.30;68.41;100868.31;1730944;82;21237;-40
2021/04/22 06:05:32;;;;;;;0.50;0.50;;;;;;;12.45;66.89;100877.84;1731411;82;21125;-42
2021/04/22 06:07:59;;;;;;;0.72;0.60;;;;;;;12.64;65.74;100879.95;1732135;82;21118;-42
2021/04/22 06:10:26;;;;;;;1.17;1.07;;;;;;;12.85;64.55;100884.19;1729296;80;21468;-41
2021/04/22 06:12:54;;;;;;;1.55;0.93;;;;;;;13.04;63.25;100882.16;1728608;82;21173;-41
2021/04/22 06:15:22;;;;;;;0.42;0.42;;;;;;;13.21;63.54;100890.81;1732371;82;21185;-42
2021/04/22 06:17:50;;;;;;;0.53;0.53;;;;;;;13.37;63.23;100892.90;1732509;82;21556;-41
2021/04/22 06:20:22;;;;;;;0.93;0.93;;;;;;;13.55;61.68;100891.39;1732187;82;21142;-41
2021/04/22 06:22:51;;;;;;;1.05;0.80;;;;;;;13.73;60.98;100896.15;1732286;81;21117;-42
2021/04/22 06:25:20;;;;;;;0.57;0.40;;;;;;;13.91;59.76;100890.47;1724621;82;21156;-42
2021/04/22 06:27:47;;;;;;;3.72;1.90;;;;;;;14.10;58.99;100897.41;1700773;83;21146;-41
2021/04/22 06:30:17;;;;;;;1.37;1.32;;;;;;;14.27;57.81;100898.86;1777024;80;21464;-41
2021/04/22 06:32:45;;;;;;;0.35;0.35;;;;;;;14.44;58.17;100897.84;1774450;80;21579;-41
2021/04/22 06:35:14;;;;;;;1.40;0.85;;;;;;;14.62;57.35;100898.45;1703752;84;21702;-43
2021/04/22 06:37:42;;;;;;;0.33;0.33;;;;;;;14.79;55.41;100894.39;1759184;81;21130;-42
2021/04/22 06:40:13;;;;;;;0.98;0.50;;;;;;;14.90;54.18;100894.48;1719716;83;21471;-42
2021/04/22 06:42:41;;;;;;;4.20;0.50;;;;;;;15.00;53.72;100887.45;1741857;80;21112;-41
2021/04/22 06:45:10;;;;;;;0.75;0.75;;;;;;;15.13;53.82;100886.44;1754708;80;21115;-42
2021/04/22 06:47:38;;;;;;;1.17;1.10;;;;;;;15.26;54.52;100887.87;1719331;83;21437;-41
2021/04/22 06:50:08;;;;;;;0.80;0.25;;;;;;;15.42;54.07;100888.43;1715559;83;21152;-41
2021/04/22 06:52:35;;;;;;;0.85;0.85;;;;;;;15.56;52.80;100883.54;1717485;83;21690;-41
2021/04/22 06:55:05;;;;;;;0.30;0.25;;;;;;;15.71;51.82;100894.31;1717462;83;21172;-42
2021/04/22 06:57:33;;;;;;;0.50;0.50;;;;;;;15.87;51.94;100886.57;1720019;82;21533;-42
2021/04/22 07:00:00;;;;;;;0.10;0.10;;;;;;;16.03;52.32;100881.60;1727558;81;21122;-42
2021/04/22 07:02:27;;;;;;;0.33;0.20;;;;;;;16.22;52.52;100883.70;1788748;80;21129;-40
2021/04/22 07:04:55;;;;;;;0.42;0.42;;;;;;;16.41;49.83;100886.89;1788586;78;21153;-42
2021/04/22 07:07:22;;;;;;;1.05;0.95;;;;;;;16.51;49.24;100878.39;1788782;79;21137;-41
2021/04/22 07:09:50;;;;;;;0.65;0.65;;;;;;;16.58;48.69;100883.50;1734001;80;21118;-41
2021/04/22 07:12:17;;;;;;;0.30;0.30;;;;;;;16.67;49.89;100894.07;1727573;83;21170;-42
2021/04/22 07:14:45;;;;;;;1.15;0.85;;;;;;;16.77;49.51;100891.89;1729094;82;21557;-42
2021/04/22 07:17:12;;;;;;;2.55;1.22;;;;;;;16.90;49.60;100891.63;1726421;83;21227;-43
2021/04/22 07:19:40;;;;;;;1.02;0.93;;;;;;;17.07;48.71;100897.87;1759454;81;21130;-42
2021/04/22 07:22:07;;;;;;;0.28;0.28;;;;;;;17.20;48.57;100892.84;1758621;81;21129;-42
2021/04/22 07:24:37;;;;;;;0.23;0.20;;;;;;;17.36;47.75;100894.69;1727454;83;21458;-44
2021/04/22 07:27:06;;;;;;;0.57;0.57;;;;;;;17.51;47.13;100893.48;1787974;80;21172;-41
2021/04/22 07:29:33;;;;;;;0.10;0.10;;;;;;;17.59;46.65;100891.91;1788569;80;21195;-42
2021/04/22 07:32:03;;;;;;;1.30;0.88;;;;;;;17.74;46.90;100887.34;1788544;78;21125;-42
2021/04/22 07:34:30;;;;;;;0.40;0.40;;;;;;;17.88;46.40;100891.45;1785770;78;21129;-42
2021/04/22 07:36:58;;;;;;;0.30;0.30;;;;;;;17.96;45.22;100895.38;1759686;81;21133;-41
2021/04/22 07:39:26;;;;;;;1.37;0.40;;;;;;;17.98;45.02;100904.98;1759480;81;21590;-42
2021/04/22 07:41:53;;;;;;;0.88;0.78;;;;;;;18.05;45.53;100893.45;1759417;81;21574;-42
2021/04/22 07:44:21;;;;;;;0.30;0.30;;;;;;;18.10;44.84;100898.02;1727625;83;21140;-43
2021/04/22 07:46:48;;;;;;;2.00;0.42;;;;;;;18.16;43.62;100900.91;1788641;80;21570;-41
2021/04/22 07:49:16;;;;;;;0.15;0.15;;;;;;;18.14;43.86;100894.87;1790655;79;21123;-42
2021/04/22 07:51:43;;;;;;;2.05;0.45;;;;;;;18.15;44.22;100902.03;1763520;80;21713;-41
2021/04/22 07:54:12;;;;;;;2.90;0.40;;;;;;;18.24;44.32;100895.39;1785251;80;21116;-41
2021/04/22 07:56:41;;;;;;;0.40;0.40;;;;;;;18.41;44.28;100893.25;1785366;80;21120;-43
2021/04/22 07:59:10;;;;;;;0.40;0.40;;;;;;;18.56;43.99;100898.91;1785924;78;21547;-42
2021/04/22 08:01:38;;;;;;;0.45;0.40;;;;;;;18.69;43.79;100892.98;1756302;81;21171;-42
2021/04/22 08:04:08;;;;;;;0.20;0.20;;;;;;;18.83;42.76;100888.72;1734542;81;22823;-41
2021/04/22 08:06:36;;;;;;;3.30;0.42;;;;;;;18.89;41.10;100889.63;1734583;82;21568;-42
2021/04/22 08:09:04;;;;;;;0.62;0.53;;;;;;;18.82;41.38;100893.45;1755379;81;21139;-42
2021/04/22 08:11:31;;;;;;;0.37;0.37;;;;;;;18.81;42.23;100891.00;1754853;81;21150;-42
2021/04/22 08:14:03;;;;;;;0.72;0.72;;;;;;;18.85;42.70;100893.38;1755462;80;21201;-43
2021/04/22 08:16:31;;;;;;;1.07;0.35;;;;;;;18.93;42.99;100886.20;1709880;81;21135;-42
2021/04/22 08:19:00;;;;;;;0.30;0.30;;;;;;;19.08;42.58;100894.02;1735739;82;21210;-42
2021/04/22 08:21:28;;;;;;;0.65;0.65;;;;;;;19.16;41.93;100893.20;1735670;82;21147;-41
2021/04/22 08:23:55;;;;;;;0.50;0.40;;;;;;;19.18;39.90;100895.66;1736511;82;21449;-42
2021/04/22 08:26:23;;;;;;;1.12;0.88;;;;;;;19.24;40.17;100894.36;1736982;82;21144;-41
2021/04/22 08:28:50;;;;;;;0.45;0.45;;;;;;;19.24;40.17;100894.36;1737213;81;21141;-43
2021/04/22 08:31:23;;;;;;;0.55;0.45;;;;;;;19.37;40.70;100887.81;1737460;82;21657;-41
2021/04/22 08:33:53;;;;;;;0.28;0.28;;;;;;;19.46;39.38;100880.86;1737517;81;21165;-42
2021/04/22 08:36:21;;;;;;;0.45;0.40;;;;;;;19.61;38.36;100870.66;1708360;82;21558;-43
2021/04/22 08:38:49;;;;;;;0.65;0.65;;;;;;;19.61;38.36;100870.66;1708180;82;21135;-41
2021/04/22 08:41:17;;;;;;;0.37;0.30;;;;;;;19.60;38.18;100869.59;1708208;84;21549;-42
2021/04/22 08:43:47;;;;;;;0.28;0.28;;;;;;;19.67;39.09;100877.67;1733766;81;21149;-40
2021/04/22 08:46:16;;;;;;;0.47;0.47;;;;;;;19.88;37.63;100863.08;1737822;82;21129;-41
2021/04/22 08:48:44;;;;;;;0.30;0.30;;;;;;;20.01;37.45;100866.80;1684116;81;21160;-41
2021/04/22 08:51:12;;;;;;;0.78;0.65;;;;;;;19.99;36.69;100869.89;1732102;82;21172;-41
2021/04/22 08:53:44;;;;;;;0.15;0.15;;;;;;;19.62;37.90;100862.57;1702484;84;21230;-41
2021/04/22 08:56:13;;;;;;;0.35;0.35;;;;;;;19.62;37.90;100862.57;1672316;84;21166;-41
2021/04/22 08:58:42;;;;;;;0.80;0.47;;;;;;;19.40;38.69;100865.56;1702832;82;21417;-42
2021/04/22 09:01:14;;;;;;;0.37;0.37;;;;;;;19.17;38.49;100869.91;1700185;82;21145;-43
2021/04/22 09:19:45;;;;;;;0.85;0.60;;;;;;;18.20;39.35;100870.08;1695033;83;21170;-41
2021/04/22 09:22:13;;;;;;;0.30;0.28;;;;;;;18.08;39.85;100870.71;1692816;84;21587;-43
2021/04/22 09:24:40;;;;;;;0.93;0.78;;;;;;;18.08;40.44;100872.67;1716844;83;21147;-41
2021/04/22 09:27:13;;;;;;;0.00;0.00;;;;;;;18.05;39.49;100863.87;1724056;83;21180;-43
2021/04/22 09:29:49;;;;;;;1.30;0.40;;;;;;;18.03;40.21;100870.28;1723837;81;21552;-41
2021/04/22 09:32:24;;;;;;;0.70;0.53;;;;;;;18.05;40.47;100866.64;1730338;82;21504;-43
2021/04/22 09:34:56;;;;;;;0.40;0.40;;;;;;;18.08;40.24;100864.37;1732571;82;21154;-42
2021/04/22 09:37:43;;;;;;;0.37;0.30;;;;;;;18.15;39.51;100860.55;1727868;82;21535;-42
2021/04/22 09:40:20;;;;;;;0.25;0.20;;;;;;;18.18;39.70;100859.35;1706509;82;21513;-41
2021/04/22 09:42:48;;;;;;;0.55;0.47;;;;;;;18.20;38.93;100857.09;1701225;81;21126;-41
2021/04/22 09:45:20;;;;;;;0.65;0.47;;;;;;;18.19;38.78;100858.20;1732056;82;21158;-42
2021/04/22 09:47:49;;;;;;;0.20;0.20;;;;;;;18.18;38.96;100857.16;1734745;81;21564;-41
2021/04/22 09:50:23;;;;;;;0.50;0.50;;;;;;;18.14;38.79;100852.02;1699722;81;21163;-43
2021/04/22 09:52:55;;;;;;;0.40;0.40;;;;;;;18.04;38.33;100857.27;1724877;81;21154;-43
2021/04/22 09:55:29;;;;;;;1.25;0.62;;;;;;;17.90;39.65;100859.31;1733895;81;21521;-43
2021/04/22 09:57:57;;;;;;;0.53;0.53;;;;;;;17.79;40.32;100852.66;1719362;83;21497;-41
2021/04/22 10:00:30;;;;;;;0.62;0.53;;;;;;;17.70;40.07;100853.17;1740342;81;21131;-41
2021/04/22 10:02:59;;;;;;;1.35;0.60;;;;;;;17.67;40.40;100851.63;1758143;81;21250;-41
2021/04/22 10:05:34;;;;;;;0.40;0.35;;;;;;;17.73;40.36;100842.89;1759064;81;21150;-42
2021/04/22 10:08:12;;;;;;;1.30;0.80;;;;;;;17.87;40.87;100846.14;1758419;81;21237;-46
2021/04/22 10:10:53;;;;;;;1.32;0.50;;;;;;;18.14;40.67;100838.19;1759143;81;21146;-46
2021/04/22 10:13:20;;;;;;;0.30;0.30;;;;;;;18.71;39.57;100846.42;1733179;81;21170;-45
2021/04/22 10:15:53;;;;;;;0.62;0.62;;;;;;;19.43;37.97;100839.95;1758726;81;21131;-47
2021/04/22 10:18:20;;;;;;;0.30;0.30;;;;;;;20.08;37.10;100836.55;1757886;80;21170;-46
2021/04/22 10:20:49;;;;;;;0.57;0.53;;;;;;;20.75;36.37;100825.15;1758605;81;21114;-46
2021/04/22 10:23:19;;;;;;;0.40;0.20;;;;;;;21.39;33.92;100828.90;1759322;80;21122;-47
2021/04/22 10:25:47;;;;;;;2.10;0.75;;;;;;;22.01;34.47;100827.01;1752038;81;21155;-47
2021/04/22 10:28:16;;;;;;;0.25;0.25;;;;;;;22.58;32.93;100832.20;1759185;81;21249;-47
2021/04/22 10:30:45;;;;;;;0.30;0.30;;;;;;;23.08;31.68;100815.56;1759152;81;21143;-48
2021/04/22 10:33:12;;;;;;;0.28;0.28;;;;;;;23.29;31.09;100818.11;1759114;80;21146;-47
2021/04/22 10:35:42;;;;;;;0.50;0.50;;;;;;;23.27;30.45;100825.21;1758988;81;21167;-47
2021/04/22 10:38:10;;;;;;;1.35;0.98;;;;;;;22.94;30.25;100824.28;1758724;81;21158;-46
2021/04/22 10:40:44;;;;;;;0.45;0.45;;;;;;;22.52;30.25;100816.87;1759232;81;21562;-46
2021/04/22 10:43:21;;;;;;;0.68;0.65;;;;;;;22.21;31.25;100821.70;1758983;81;21007;-46
2021/04/22 10:45:49;;;;;;;0.65;0.30;;;;;;;21.97;31.56;100823.87;1758968;81;21115;-46
2021/04/22 10:48:17;;;;;;;0.80;0.80;;;;;;;21.66;32.22;100816.88;1759611;80;21442;-46
2021/04/22 10:50:49;;;;;;;0.62;0.50;;;;;;;21.33;31.92;100821.89;1757247;81;21131;-46
2021/04/22 10:53:19;;;;;;;0.72;0.50;;;;;;;20.96;32.08;100818.17;1755585;80;21115;-47
2021/04/22 10:55:50;;;;;;;0.60;0.55;;;;;;;20.55;32.49;100814.28;1756558;81;21677;-46
2021/04/22 10:58:28;;;;;;;0.82;0.57;;;;;;;20.17;33.05;100821.48;1754510;81;21154;-47
2021/04/22 11:01:03;;;;;;;0.30;0.30;;;;;;;19.94;34.53;100822.35;1754999;81;21167;-46
2021/04/22 11:03:41;;;;;;;1.47;1.05;;;;;;;19.81;34.73;100817.86;1756311;80;21099;-47
2021/04/22 11:06:15;;;;;;;0.78;0.40;;;;;;;19.90;36.18;100801.97;1755833;81;21159;-47
2021/04/22 11:08:54;;;;;;;0.35;0.25;;;;;;;19.90;36.18;100801.97;1755717;80;21174;-48
2021/04/22 11:11:31;;;;;;;1.55;0.70;;;;;;;19.99;34.67;100808.88;1721610;81;21147;-46
2021/04/22 11:14:15;;;;;;;0.30;0.30;;;;;;;19.97;34.21;100806.42;1723485;82;21146;-46
2021/04/22 11:16:54;;;;;;;0.20;0.20;;;;;;;19.96;33.69;100798.45;1737516;82;21157;-47
2021/04/22 11:19:25;;;;;;;0.55;0.55;;;;;;;19.97;34.29;100792.55;1736420;82;21193;-46
2021/04/22 11:21:54;;;;;;;0.82;0.62;;;;;;;20.15;34.27;100794.68;1734779;81;21572;-43
2021/04/22 11:24:39;;;;;;;0.53;0.40;;;;;;;20.58;33.89;100781.09;1707747;82;21210;-43
2021/04/22 11:27:12;;;;;;;1.00;0.35;;;;;;;21.02;33.48;100775.95;1737412;82;21154;-43
2021/04/22 11:30:03;;;;;;;0.25;0.25;;;;;;;21.40;31.89;100781.87;1744280;81;21164;-43
2021/04/22 11:32:37;;;;;;;0.25;0.25;;;;;;;21.61;32.35;100785.13;1733424;81;21133;-43
2021/04/22 11:35:15;;;;;;;1.65;0.72;;;;;;;21.55;32.47;100782.36;1737371;82;21291;-44
2021/04/22 11:38:05;;;;;;;0.45;0.42;;;;;;;21.32;32.63;100775.81;1756690;80;21548;-42
2021/04/22 11:40:45;;;;;;;0.40;0.30;;;;;;;21.16;32.80;100776.22;1756342;81;21127;-42
2021/04/22 11:43:24;;;;;;;0.47;0.40;;;;;;;21.06;32.14;100769.13;1755517;80;21130;-42
2021/04/22 11:45:57;;;;;;;0.45;0.37;;;;;;;20.93;32.90;100771.06;1755978;81;21439;-42
2021/04/22 11:48:25;;;;;;;0.35;0.35;;;;;;;20.73;32.55;100766.36;1755419;81;21552;-41
2021/04/22 11:50:55;;;;;;;0.20;0.20;;;;;;;20.46;32.73;100768.50;1752387;81;21665;-42
2021/04/22 11:53:35;;;;;;;0.57;0.57;;;;;;;20.16;33.67;100768.55;1755719;80;21162;-43